Time,TemperatureF,DewpointF,PressureIn,WindDirection,WindDirectionDegrees,WindSpeedMPH,WindSpeedGustMPH,Humidity,HourlyPrecipIn,Conditions,Clouds,dailyrainin,SoftwareType,DateUTC
2013-06-29 00:02:00,54.5,48.4,29.76,WNW,293,0.0,0.0,80,0.00,,,0.00,WUHU216HW,2013-06-29 08:02:00,
2013-06-29 00:07:00,54.3,48.3,29.76,WNW,293,0.0,0.0,80,0.00,,,0.00,WUHU216HW,2013-06-29 08:07:00,
2013-06-29 00:12:00,54.3,48.3,29.76,WNW,293,0.0,0.0,80,0.00,,,0.00,WUHU216HW,2013-06-29 08:12:00,
2013-06-29 00:17:00,54.1,48.4,29.76,WNW,293,0.0,0.0,81,0.00,,,0.00,WUHU216HW,2013-06-29 08:17:00,
2013-06-29 00:22:00,54.1,48.4,29.76,WNW,293,0.0,0.0,81,0.00,,,0.00,WUHU216HW,2013-06-29 08:22:00,
2013-06-29 00:27:00,54.1,48.2,29.76,WNW,293,0.0,0.0,81,0.00,,,0.00,WUHU216HW,2013-06-29 08:27:00,
2013-06-29 00:32:00,53.9,48.2,29.76,WNW,293,0.0,0.0,81,0.00,,,0.00,WUHU216HW,2013-06-29 08:32:00,
2013-06-29 00:37:00,53.7,48.1,29.76,WNW,293,0.0,0.0,81,0.00,,,0.00,WUHU216HW,2013-06-29 08:37:00,
2013-06-29 00:42:00,53.7,48.1,29.76,WNW,293,0.0,0.0,81,0.00,,,0.00,WUHU216HW,2013-06-29 08:42:00,
2013-06-29 00:47:00,53.7,48.1,29.76,WNW,293,0.0,0.0,81,0.00,,,0.00,WUHU216HW,2013-06-29 08:47:00,
2013-06-29 00:52:00,53.7,48.4,29.76,WNW,293,0.0,0.0,82,0.00,,,0.00,WUHU216HW,2013-06-29 08:52:00,
2013-06-29 00:57:00,53.7,48.4,29.76,WNW,293,0.0,0.0,82,0.00,,,0.00,WUHU216HW,2013-06-29 08:57:00,
2013-06-29 01:02:00,53.7,48.4,29.76,WNW,293,0.0,0.0,82,0.00,,,0.00,WUHU216HW,2013-06-29 09:02:00,
2013-06-29 01:07:00,53.4,48.0,29.77,WNW,293,0.0,0.0,82,0.00,,,0.00,WUHU216HW,2013-06-29 09:07:00,
2013-06-29 01:12:00,53.4,48.0,29.76,WNW,293,0.0,0.0,82,0.00,,,0.00,WUHU216HW,2013-06-29 09:12:00,
2013-06-29 01:17:00,53.4,48.0,29.76,WNW,293,0.0,0.0,82,0.00,,,0.00,WUHU216HW,2013-06-29 09:17:00,
2013-06-29 01:22:00,53.4,48.0,29.76,WNW,293,0.0,0.0,82,0.00,,,0.00,WUHU216HW,2013-06-29 09:22:00,
2013-06-29 01:27:00,53.2,47.9,29.76,WNW,293,0.0,0.0,82,0.00,,,0.00,WUHU216HW,2013-06-29 09:27:00,
2013-06-29 01:32:00,53.2,47.9,29.76,WNW,293,0.0,0.0,82,0.00,,,0.00,WUHU216HW,2013-06-29 09:32:00,
2013-06-29 01:37:00,53.2,48.2,29.76,WNW,293,0.0,0.0,83,0.00,,,0.00,WUHU216HW,2013-06-29 09:37:00,
2013-06-29 01:42:00,53.2,48.2,29.76,WNW,293,0.0,0.0,83,0.00,,,0.00,WUHU216HW,2013-06-29 09:42:00,
2013-06-29 01:47:00,53.2,48.2,29.76,WNW,293,0.0,0.0,83,0.00,,,0.00,WUHU216HW,2013-06-29 09:47:00,
2013-06-29 01:52:00,53.2,48.2,29.76,WNW,293,0.0,0.0,83,0.00,,,0.00,WUHU216HW,2013-06-29 09:52:00,
2013-06-29 01:57:00,53.2,48.2,29.76,WNW,293,0.0,0.0,83,0.00,,,0.00,WUHU216HW,2013-06-29 09:57:00,
2013-06-29 02:02:00,53.2,48.2,29.76,WNW,293,0.0,0.0,83,0.00,,,0.00,WUHU216HW,2013-06-29 10:02:00,
2013-06-29 02:07:00,53.2,48.2,29.76,WNW,293,0.0,0.0,83,0.00,,,0.00,WUHU216HW,2013-06-29 10:07:00,
2013-06-29 02:12:00,53.2,48.2,29.76,WNW,293,0.0,0.0,83,0.00,,,0.00,WUHU216HW,2013-06-29 10:12:00,
2013-06-29 02:17:00,53.2,48.2,29.76,WNW,293,0.0,0.0,83,0.00,,,0.00,WUHU216HW,2013-06-29 10:17:00,
2013-06-29 02:22:00,53.0,48.0,29.76,WNW,293,0.0,0.0,83,0.00,,,0.00,WUHU216HW,2013-06-29 10:22:00,
2013-06-29 02:27:00,53.0,48.0,29.76,WNW,293,0.0,0.0,83,0.00,,,0.00,WUHU216HW,2013-06-29 10:27:00,
2013-06-29 02:32:00,52.8,47.8,29.76,WNW,293,0.0,0.0,83,0.00,,,0.00,WUHU216HW,2013-06-29 10:32:00,
2013-06-29 02:37:00,52.8,48.1,29.75,WNW,293,0.0,0.0,84,0.00,,,0.00,WUHU216HW,2013-06-29 10:37:00,
2013-06-29 02:42:00,52.8,48.1,29.75,WNW,293,0.0,0.0,84,0.00,,,0.00,WUHU216HW,2013-06-29 10:42:00,
2013-06-29 02:47:00,52.8,48.1,29.75,WNW,293,0.0,0.0,84,0.00,,,0.00,WUHU216HW,2013-06-29 10:47:00,
2013-06-29 02:53:00,52.8,48.1,29.75,WNW,293,0.0,0.0,84,0.00,,,0.00,WUHU216HW,2013-06-29 10:53:00,
2013-06-29 02:58:00,52.7,47.9,29.75,WNW,293,0.0,0.0,84,0.00,,,0.00,WUHU216HW,2013-06-29 10:58:00,
2013-06-29 03:03:00,52.7,47.9,29.75,WNW,293,0.0,0.0,84,0.00,,,0.00,WUHU216HW,2013-06-29 11:03:00,
2013-06-29 03:08:00,52.7,47.9,29.75,WNW,293,0.0,0.0,84,0.00,,,0.00,WUHU216HW,2013-06-29 11:08:00,
2013-06-29 03:13:00,52.5,47.8,29.74,WNW,293,0.0,0.0,84,0.00,,,0.00,WUHU216HW,2013-06-29 11:13:00,
2013-06-29 03:18:00,52.5,47.8,29.74,WNW,293,0.0,0.0,84,0.00,,,0.00,WUHU216HW,2013-06-29 11:18:00,
2013-06-29 03:23:00,52.5,47.8,29.74,WNW,293,0.0,0.0,84,0.00,,,0.00,WUHU216HW,2013-06-29 11:23:00,
2013-06-29 03:28:00,52.5,47.8,29.74,WNW,293,0.0,0.0,84,0.00,,,0.00,WUHU216HW,2013-06-29 11:28:00,
2013-06-29 03:33:00,52.5,47.8,29.74,WNW,293,0.0,0.0,84,0.00,,,0.00,WUHU216HW,2013-06-29 11:33:00,
2013-06-29 03:38:00,52.5,47.8,29.74,WNW,293,0.0,0.0,84,0.00,,,0.00,WUHU216HW,2013-06-29 11:38:00,
2013-06-29 03:43:00,52.5,47.8,29.75,WNW,293,0.0,0.0,84,0.00,,,0.00,WUHU216HW,2013-06-29 11:43:00,
2013-06-29 03:48:00,52.3,47.6,29.74,WNW,293,0.0,0.0,84,0.00,,,0.00,WUHU216HW,2013-06-29 11:48:00,
2013-06-29 03:53:00,52.3,47.6,29.75,WNW,293,0.0,0.0,84,0.00,,,0.00,WUHU216HW,2013-06-29 11:53:00,
2013-06-29 03:58:00,52.3,47.9,29.74,WNW,293,0.0,0.0,85,0.00,,,0.00,WUHU216HW,2013-06-29 11:58:00,
2013-06-29 04:03:00,52.3,47.9,29.74,WNW,293,0.0,0.0,85,0.00,,,0.00,WUHU216HW,2013-06-29 12:03:00,
2013-06-29 04:08:00,52.3,47.9,29.75,WNW,293,0.0,0.0,85,0.00,,,0.00,WUHU216HW,2013-06-29 12:08:00,
2013-06-29 04:13:00,52.3,47.9,29.74,WNW,293,0.0,0.0,85,0.00,,,0.00,WUHU216HW,2013-06-29 12:13:00,
2013-06-29 04:18:00,52.3,47.9,29.74,WNW,293,0.0,0.0,85,0.00,,,0.00,WUHU216HW,2013-06-29 12:18:00,
2013-06-29 04:23:00,52.3,47.9,29.73,WNW,293,0.0,0.0,85,0.00,,,0.00,WUHU216HW,2013-06-29 12:23:00,
2013-06-29 04:28:00,52.1,47.7,29.73,SW,225,0.0,0.0,85,0.00,,,0.00,WUHU216HW,2013-06-29 12:28:00,
2013-06-29 04:33:00,52.1,47.7,29.73,SW,225,0.0,0.0,85,0.00,,,0.00,WUHU216HW,2013-06-29 12:33:00,
2013-06-29 04:38:00,52.1,48.0,29.73,SSW,203,0.0,0.0,86,0.00,,,0.00,WUHU216HW,2013-06-29 12:38:00,
2013-06-29 04:43:00,52.1,48.0,29.73,SSW,203,0.0,0.0,86,0.00,,,0.00,WUHU216HW,2013-06-29 12:43:00,
2013-06-29 04:48:00,52.1,48.0,29.73,SSW,203,0.0,0.0,86,0.00,,,0.00,WUHU216HW,2013-06-29 12:48:00,
2013-06-29 04:53:00,52.1,48.0,29.73,SSW,203,0.0,0.0,86,0.00,,,0.00,WUHU216HW,2013-06-29 12:53:00,
2013-06-29 04:58:00,52.1,48.0,29.73,SSW,203,0.0,0.0,86,0.00,,,0.00,WUHU216HW,2013-06-29 12:58:00,
2013-06-29 05:03:00,52.1,48.0,29.73,SSW,203,0.0,0.0,86,0.00,,,0.00,WUHU216HW,2013-06-29 13:03:00,
2013-06-29 05:08:00,52.1,47.7,29.73,SSW,203,0.0,0.0,85,0.00,,,0.00,WUHU216HW,2013-06-29 13:08:00,
2013-06-29 05:13:00,52.1,47.7,29.72,SSW,203,0.0,0.0,85,0.00,,,0.00,WUHU216HW,2013-06-29 13:13:00,
2013-06-29 05:18:00,52.3,47.9,29.72,SSW,203,0.0,0.0,85,0.00,,,0.00,WUHU216HW,2013-06-29 13:18:00,
2013-06-29 05:23:00,52.3,47.9,29.72,SSW,203,0.0,0.0,85,0.00,,,0.00,WUHU216HW,2013-06-29 13:23:00,
2013-06-29 05:28:00,52.1,47.7,29.72,SSW,203,0.0,0.0,85,0.00,,,0.00,WUHU216HW,2013-06-29 13:28:00,
2013-06-29 05:33:00,52.3,47.9,29.72,SSW,203,0.0,0.0,85,0.00,,,0.00,WUHU216HW,2013-06-29 13:33:00,
2013-06-29 05:38:00,52.1,47.7,29.72,SSW,203,0.0,0.0,85,0.00,,,0.00,WUHU216HW,2013-06-29 13:38:00,
2013-06-29 05:43:00,51.9,47.5,29.72,SSW,203,0.0,0.0,85,0.00,,,0.00,WUHU216HW,2013-06-29 13:43:00,
2013-06-29 05:48:00,51.8,47.3,29.72,SSW,203,0.0,0.0,85,0.00,,,0.00,WUHU216HW,2013-06-29 13:48:00,
2013-06-29 05:53:00,51.6,47.2,29.72,SSW,203,0.0,0.0,85,0.00,,,0.00,WUHU216HW,2013-06-29 13:53:00,
2013-06-29 05:58:00,51.4,47.0,29.72,SSW,203,0.0,0.0,85,0.00,,,0.00,WUHU216HW,2013-06-29 13:58:00,
2013-06-29 06:03:00,51.2,46.8,29.72,SSW,203,0.0,0.0,85,0.00,,,0.00,WUHU216HW,2013-06-29 14:03:00,
2013-06-29 06:08:00,50.9,46.4,29.72,SSW,203,0.0,0.0,85,0.00,,,0.00,WUHU216HW,2013-06-29 14:08:00,
2013-06-29 06:13:00,50.7,46.3,29.71,SSW,203,0.0,0.0,85,0.00,,,0.00,WUHU216HW,2013-06-29 14:13:00,
2013-06-29 06:18:00,50.7,46.6,29.71,SSW,203,0.0,0.0,86,0.00,,,0.00,WUHU216HW,2013-06-29 14:18:00,
2013-06-29 06:23:00,50.7,46.6,29.71,SSW,203,0.0,0.0,86,0.00,,,0.00,WUHU216HW,2013-06-29 14:23:00,
2013-06-29 06:28:00,50.7,46.6,29.71,SSW,203,0.0,0.0,86,0.00,,,0.00,WUHU216HW,2013-06-29 14:28:00,
2013-06-29 06:33:00,50.9,46.7,29.72,SSW,203,0.0,0.0,86,0.00,,,0.00,WUHU216HW,2013-06-29 14:33:00,
2013-06-29 06:38:00,51.4,47.6,29.71,SSW,203,0.0,0.0,87,0.00,,,0.00,WUHU216HW,2013-06-29 14:38:00,
2013-06-29 06:43:00,51.6,47.8,29.72,SSW,203,0.0,0.0,87,0.00,,,0.00,WUHU216HW,2013-06-29 14:43:00,
2013-06-29 06:48:00,52.1,48.3,29.72,SSW,203,0.0,0.0,87,0.00,,,0.00,WUHU216HW,2013-06-29 14:48:00,
2013-06-29 06:53:00,52.5,48.7,29.72,SSW,203,0.0,0.0,87,0.00,,,0.00,WUHU216HW,2013-06-29 14:53:00,
2013-06-29 06:58:00,52.7,48.5,29.71,SSW,203,0.0,0.0,86,0.00,,,0.00,WUHU216HW,2013-06-29 14:58:00,
2013-06-29 07:03:00,52.8,48.7,29.71,SSW,203,0.0,0.0,86,0.00,,,0.00,WUHU216HW,2013-06-29 15:03:00,
2013-06-29 07:08:00,53.2,49.1,29.72,SSW,203,0.0,0.0,86,0.00,,,0.00,WUHU216HW,2013-06-29 15:08:00,
2013-06-29 07:13:00,53.4,49.6,29.71,SSW,203,0.0,0.0,87,0.00,,,0.00,WUHU216HW,2013-06-29 15:13:00,
2013-06-29 07:18:00,53.7,49.6,29.71,SSW,203,0.0,0.0,86,0.00,,,0.00,WUHU216HW,2013-06-29 15:18:00,
2013-06-29 07:23:00,54.1,50.0,29.71,SSW,203,0.0,0.0,86,0.00,,,0.00,WUHU216HW,2013-06-29 15:23:00,
2013-06-29 07:28:00,54.3,50.1,29.71,SSW,203,0.0,0.0,86,0.00,,,0.00,WUHU216HW,2013-06-29 15:28:00,
2013-06-29 07:33:00,54.6,50.5,29.71,SSW,203,0.0,0.0,86,0.00,,,0.00,WUHU216HW,2013-06-29 15:33:00,
2013-06-29 07:38:00,54.8,50.3,29.71,SSW,203,0.0,0.0,85,0.00,,,0.00,WUHU216HW,2013-06-29 15:38:00,
2013-06-29 07:43:00,55.0,50.5,29.71,WSW,248,0.0,0.0,85,0.00,,,0.00,WUHU216HW,2013-06-29 15:43:00,
2013-06-29 07:48:00,55.2,50.7,29.71,WSW,248,0.0,0.0,85,0.00,,,0.00,WUHU216HW,2013-06-29 15:48:00,
2013-06-29 07:53:00,55.5,51.0,29.71,WSW,248,0.0,0.0,85,0.00,,,0.00,WUHU216HW,2013-06-29 15:53:00,
2013-06-29 07:58:00,55.9,51.4,29.71,WSW,248,0.0,0.0,85,0.00,,,0.00,WUHU216HW,2013-06-29 15:58:00,
2013-06-29 08:03:00,56.1,51.2,29.71,WSW,248,0.0,0.0,84,0.00,,,0.00,WUHU216HW,2013-06-29 16:03:00,
2013-06-29 08:08:00,56.8,52.0,29.71,West,270,0.0,0.0,84,0.00,,,0.00,WUHU216HW,2013-06-29 16:08:00,
2013-06-29 08:13:00,57.0,51.8,29.71,West,270,0.0,0.0,83,0.00,,,0.00,WUHU216HW,2013-06-29 16:13:00,
2013-06-29 08:18:00,57.3,52.2,29.71,WNW,293,0.0,0.0,83,0.00,,,0.00,WUHU216HW,2013-06-29 16:18:00,
2013-06-29 08:23:00,57.9,52.1,29.71,NW,315,0.0,0.0,81,0.00,,,0.00,WUHU216HW,2013-06-29 16:23:00,
2013-06-29 08:28:00,58.2,52.4,29.70,NW,315,0.0,0.0,81,0.00,,,0.00,WUHU216HW,2013-06-29 16:28:00,
2013-06-29 08:33:00,58.6,52.5,29.70,NW,315,0.0,0.0,80,0.00,,,0.00,WUHU216HW,2013-06-29 16:33:00,
2013-06-29 08:38:00,58.8,52.7,29.70,NW,315,0.0,0.0,80,0.00,,,0.00,WUHU216HW,2013-06-29 16:38:00,
2013-06-29 08:43:00,58.8,52.3,29.70,NW,315,0.0,0.0,79,0.00,,,0.00,WUHU216HW,2013-06-29 16:43:00,
2013-06-29 08:48:00,59.3,52.8,29.71,NW,315,0.0,0.0,79,0.00,,,0.00,WUHU216HW,2013-06-29 16:48:00,
2013-06-29 08:53:00,59.7,52.8,29.70,NW,315,0.0,0.0,78,0.00,,,0.00,WUHU216HW,2013-06-29 16:53:00,
2013-06-29 08:58:00,60.0,52.8,29.70,NW,315,0.0,0.0,77,0.00,,,0.00,WUHU216HW,2013-06-29 16:58:00,
2013-06-29 09:03:00,60.4,53.2,29.70,NW,315,0.0,0.0,77,0.00,,,0.00,WUHU216HW,2013-06-29 17:03:00,
2013-06-29 09:08:00,60.6,52.7,29.70,SSE,158,0.0,0.0,75,0.00,,,0.00,WUHU216HW,2013-06-29 17:08:00,
2013-06-29 09:13:00,60.6,52.7,29.70,SSE,158,0.0,0.0,75,0.00,,,0.00,WUHU216HW,2013-06-29 17:13:00,
2013-06-29 09:18:00,60.6,52.3,29.70,SSE,158,0.6,0.6,74,0.00,,,0.00,WUHU216HW,2013-06-29 17:18:00,
2013-06-29 09:23:00,60.6,51.9,29.70,SSE,158,0.0,0.6,73,0.00,,,0.00,WUHU216HW,2013-06-29 17:23:00,
2013-06-29 09:28:00,60.6,51.9,29.69,WSW,248,0.0,0.0,73,0.00,,,0.00,WUHU216HW,2013-06-29 17:28:00,
2013-06-29 09:33:00,60.6,51.9,29.70,SW,225,0.0,0.0,73,0.00,,,0.00,WUHU216HW,2013-06-29 17:33:00,
2013-06-29 09:38:00,61.1,52.4,29.69,WNW,293,0.0,0.8,73,0.00,,,0.00,WUHU216HW,2013-06-29 17:38:00,
2013-06-29 09:43:00,61.7,52.9,29.70,North,0,0.0,0.8,73,0.00,,,0.00,WUHU216HW,2013-06-29 17:43:00,
2013-06-29 09:48:00,62.4,53.2,29.69,WNW,293,1.1,1.1,72,0.00,,,0.00,WUHU216HW,2013-06-29 17:48:00,
2013-06-29 09:53:00,63.3,53.7,29.69,WNW,293,1.3,2.9,71,0.00,,,0.00,WUHU216HW,2013-06-29 17:53:00,
2013-06-29 09:58:00,63.8,53.9,29.69,NW,315,0.0,2.9,70,0.00,,,0.00,WUHU216HW,2013-06-29 17:58:00,
2013-06-29 10:03:00,64.2,54.3,29.69,NNW,338,0.0,1.3,70,0.00,,,0.00,WUHU216HW,2013-06-29 18:03:00,
2013-06-29 10:08:00,64.9,54.1,29.69,NW,315,0.0,1.5,68,0.00,,,0.00,WUHU216HW,2013-06-29 18:08:00,
2013-06-29 10:13:00,65.4,54.6,29.69,NW,315,2.2,2.2,68,0.00,,,0.00,WUHU216HW,2013-06-29 18:13:00,
2013-06-29 10:18:00,66.0,54.6,29.68,NW,315,0.6,2.2,67,0.00,,,0.00,WUHU216HW,2013-06-29 18:18:00,
2013-06-29 10:23:00,67.1,54.8,29.68,WNW,293,0.0,0.6,65,0.00,,,0.00,WUHU216HW,2013-06-29 18:23:00,
2013-06-29 10:28:00,67.8,55.1,29.68,WNW,293,0.0,0.6,64,0.00,,,0.00,WUHU216HW,2013-06-29 18:28:00,
2013-06-29 10:33:00,68.3,55.6,29.68,WNW,293,1.5,1.5,64,0.00,,,0.00,WUHU216HW,2013-06-29 18:33:00,
2013-06-29 10:38:00,68.7,55.1,29.68,WNW,293,0.8,2.4,62,0.00,,,0.00,WUHU216HW,2013-06-29 18:38:00,
2013-06-29 10:43:00,69.6,56.0,29.68,WNW,293,1.1,2.4,62,0.00,,,0.00,WUHU216HW,2013-06-29 18:43:00,
2013-06-29 10:48:00,70.5,56.0,29.68,NW,315,1.1,2.2,60,0.00,,,0.00,WUHU216HW,2013-06-29 18:48:00,
2013-06-29 10:53:00,70.3,55.3,29.68,WNW,293,0.0,4.0,59,0.00,,,0.00,WUHU216HW,2013-06-29 18:53:00,
2013-06-29 10:58:00,69.6,54.7,29.68,WNW,293,0.0,4.0,59,0.00,,,0.00,WUHU216HW,2013-06-29 18:58:00,
2013-06-29 11:03:00,68.7,53.8,29.68,West,270,0.0,2.0,59,0.00,,,0.00,WUHU216HW,2013-06-29 19:03:00,
2013-06-29 11:08:00,68.3,53.9,29.68,NW,315,1.1,1.1,60,0.00,,,0.00,WUHU216HW,2013-06-29 19:08:00,
2013-06-29 11:13:00,68.3,54.3,29.68,WNW,293,0.0,1.1,61,0.00,,,0.00,WUHU216HW,2013-06-29 19:13:00,
2013-06-29 11:18:00,68.5,54.5,29.68,WNW,293,0.0,0.6,61,0.00,,,0.00,WUHU216HW,2013-06-29 19:18:00,
2013-06-29 11:23:00,69.0,55.0,29.68,NW,315,0.0,0.0,61,0.00,,,0.00,WUHU216HW,2013-06-29 19:23:00,
2013-06-29 11:28:00,70.1,55.7,29.68,WNW,293,3.8,3.8,60,0.00,,,0.00,WUHU216HW,2013-06-29 19:28:00,
2013-06-29 11:33:00,71.0,56.0,29.67,WNW,293,0.0,3.8,59,0.00,,,0.00,WUHU216HW,2013-06-29 19:33:00,
2013-06-29 11:39:00,71.2,55.6,29.67,WNW,293,0.0,3.8,58,0.00,,,0.00,WUHU216HW,2013-06-29 19:39:00,
2013-06-29 11:44:00,71.6,55.6,29.67,NW,315,0.6,2.9,57,0.00,,,0.00,WUHU216HW,2013-06-29 19:44:00,
2013-06-29 11:49:00,72.1,55.4,29.67,WNW,293,4.4,4.4,56,0.00,,,0.00,WUHU216HW,2013-06-29 19:49:00,
2013-06-29 11:53:00,72.5,55.8,29.67,NNW,338,0.0,4.4,56,0.00,,,0.00,WUHU216HW,2013-06-29 19:53:00,
2013-06-29 11:58:00,72.6,55.4,29.67,NNW,338,1.5,4.4,55,0.00,,,0.00,WUHU216HW,2013-06-29 19:58:00,
2013-06-29 12:03:00,73.2,55.9,29.67,NW,315,0.0,4.0,55,0.00,,,0.00,WUHU216HW,2013-06-29 20:03:00,
2013-06-29 12:08:00,73.4,56.1,29.67,NNW,338,2.0,2.0,55,0.00,,,0.00,WUHU216HW,2013-06-29 20:08:00,
2013-06-29 12:13:00,73.9,55.6,29.68,SW,225,0.0,2.0,54,0.00,,,0.00,WUHU216HW,2013-06-29 20:13:00,
2013-06-29 12:18:00,73.9,55.6,29.67,WNW,293,0.0,1.5,53,0.00,,,0.00,WUHU216HW,2013-06-29 20:18:00,
2013-06-29 12:23:00,74.1,55.8,29.67,SW,225,1.3,1.3,53,0.00,,,0.00,WUHU216HW,2013-06-29 20:23:00,
2013-06-29 12:29:00,74.8,56.5,29.67,West,270,0.0,1.3,53,0.00,,,0.00,WUHU216HW,2013-06-29 20:29:00,
2013-06-29 12:34:00,75.3,56.5,29.66,NW,315,0.0,0.0,52,0.00,,,0.00,WUHU216HW,2013-06-29 20:34:00,
2013-06-29 12:39:00,75.3,56.0,29.66,South,180,0.0,0.6,51,0.00,,,0.00,WUHU216HW,2013-06-29 20:39:00,
2013-06-29 12:44:00,75.3,56.5,29.66,WSW,248,5.8,5.8,52,0.00,,,0.00,WUHU216HW,2013-06-29 20:44:00,
2013-06-29 12:49:00,75.5,56.2,29.66,WSW,248,0.0,5.8,51,0.00,,,0.00,WUHU216HW,2013-06-29 20:49:00,
2013-06-29 12:54:00,75.2,55.9,29.66,ENE,68,0.0,5.8,51,0.00,,,0.00,WUHU216HW,2013-06-29 20:54:00,
2013-06-29 12:59:00,75.0,56.2,29.67,West,270,0.0,0.8,52,0.00,,,0.00,WUHU216HW,2013-06-29 20:59:00,
2013-06-29 13:04:00,75.0,55.7,29.66,WSW,248,0.0,6.2,51,0.00,,,0.00,WUHU216HW,2013-06-29 21:04:00,
2013-06-29 13:09:00,75.3,56.5,29.66,WNW,293,0.0,6.2,52,0.00,,,0.00,WUHU216HW,2013-06-29 21:09:00,
2013-06-29 13:14:00,76.2,56.8,29.66,WNW,293,4.0,4.0,51,0.00,,,0.00,WUHU216HW,2013-06-29 21:14:00,
2013-06-29 13:19:00,76.2,56.3,29.65,South,180,5.5,5.5,50,0.00,,,0.00,WUHU216HW,2013-06-29 21:19:00,
2013-06-29 13:24:00,76.1,56.2,29.66,West,270,0.0,5.5,50,0.00,,,0.00,WUHU216HW,2013-06-29 21:24:00,
2013-06-29 13:29:00,77.1,57.6,29.65,NNW,338,0.0,5.5,51,0.00,,,0.00,WUHU216HW,2013-06-29 21:29:00,
2013-06-29 13:34:00,77.5,57.5,29.65,North,0,0.0,0.6,50,0.00,,,0.00,WUHU216HW,2013-06-29 21:34:00,
2013-06-29 13:39:00,77.5,56.8,29.65,SW,225,0.0,1.3,49,0.00,,,0.00,WUHU216HW,2013-06-29 21:39:00,
2013-06-29 13:44:00,77.5,56.8,29.65,NW,315,0.6,2.2,49,0.00,,,0.00,WUHU216HW,2013-06-29 21:44:00,
2013-06-29 13:49:00,77.1,56.5,29.65,WNW,293,1.1,2.2,49,0.00,,,0.00,WUHU216HW,2013-06-29 21:49:00,
2013-06-29 13:54:00,76.6,55.4,29.65,SSW,203,0.0,2.9,48,0.00,,,0.00,WUHU216HW,2013-06-29 21:54:00,
2013-06-29 13:59:00,75.9,55.4,29.65,SW,225,0.0,2.9,49,0.00,,,0.00,WUHU216HW,2013-06-29 21:59:00,
2013-06-29 14:04:00,75.5,55.7,29.65,West,270,2.0,3.3,50,0.00,,,0.00,WUHU216HW,2013-06-29 22:04:00,
2013-06-29 14:09:00,75.3,55.5,29.65,SW,225,4.6,4.6,50,0.00,,,0.00,WUHU216HW,2013-06-29 22:09:00,
2013-06-29 14:14:00,74.8,55.0,29.65,SW,225,0.0,4.6,50,0.00,,,0.00,WUHU216HW,2013-06-29 22:14:00,
2013-06-29 14:19:00,75.0,55.7,29.65,SSW,203,3.3,3.3,51,0.00,,,0.00,WUHU216HW,2013-06-29 22:19:00,
2013-06-29 14:24:00,75.0,55.7,29.65,WSW,248,0.0,3.3,51,0.00,,,0.00,WUHU216HW,2013-06-29 22:24:00,
2013-06-29 14:29:00,75.5,56.2,29.65,NNW,338,5.1,5.1,51,0.00,,,0.00,WUHU216HW,2013-06-29 22:29:00,
2013-06-29 14:34:00,75.5,56.2,29.65,WNW,293,0.0,5.1,51,0.00,,,0.00,WUHU216HW,2013-06-29 22:34:00,
2013-06-29 14:39:00,75.5,56.2,29.65,WSW,248,0.0,5.1,51,0.00,,,0.00,WUHU216HW,2013-06-29 22:39:00,
2013-06-29 14:44:00,75.5,55.7,29.64,WNW,293,0.0,0.0,50,0.00,,,0.00,WUHU216HW,2013-06-29 22:44:00,
2013-06-29 14:49:00,75.3,55.5,29.65,NNW,338,0.0,0.6,50,0.00,,,0.00,WUHU216HW,2013-06-29 22:49:00,
2013-06-29 14:54:00,75.3,56.0,29.65,WNW,293,0.0,0.6,51,0.00,,,0.00,WUHU216HW,2013-06-29 22:54:00,
2013-06-29 14:59:00,75.3,56.0,29.65,West,270,0.0,3.1,51,0.00,,,0.00,WUHU216HW,2013-06-29 22:59:00,
2013-06-29 15:04:00,75.3,55.5,29.64,WSW,248,0.0,3.1,50,0.00,,,0.00,WUHU216HW,2013-06-29 23:04:00,
2013-06-29 15:09:00,75.3,56.0,29.64,WNW,293,0.0,1.7,51,0.00,,,0.00,WUHU216HW,2013-06-29 23:09:00,
2013-06-29 15:14:00,75.3,56.0,29.64,WNW,293,0.0,1.3,51,0.00,,,0.00,WUHU216HW,2013-06-29 23:14:00,
2013-06-29 15:19:00,75.5,56.2,29.64,WNW,293,0.0,1.3,51,0.00,,,0.00,WUHU216HW,2013-06-29 23:19:00,
2013-06-29 15:24:00,75.5,55.7,29.64,NNW,338,0.0,1.5,50,0.00,,,0.00,WUHU216HW,2013-06-29 23:24:00,
2013-06-29 15:29:00,75.5,55.7,29.64,WNW,293,0.0,2.0,50,0.00,,,0.00,WUHU216HW,2013-06-29 23:29:00,
2013-06-29 15:34:00,75.3,55.5,29.64,NW,315,1.1,2.0,50,0.00,,,0.00,WUHU216HW,2013-06-29 23:34:00,
2013-06-29 15:39:00,75.0,55.7,29.64,West,270,0.0,3.3,51,0.00,,,0.00,WUHU216HW,2013-06-29 23:39:00,
2013-06-29 15:44:00,75.0,55.7,29.64,NW,315,0.8,3.3,51,0.00,,,0.00,WUHU216HW,2013-06-29 23:44:00,
2013-06-29 15:49:00,75.0,55.7,29.64,WNW,293,1.3,1.3,51,0.00,,,0.00,WUHU216HW,2013-06-29 23:49:00,
2013-06-29 15:54:00,75.0,55.7,29.64,NW,315,0.0,1.3,51,0.00,,,0.00,WUHU216HW,2013-06-29 23:54:00,
2013-06-29 15:59:00,74.6,55.3,29.64,WSW,248,0.0,0.0,51,0.00,,,0.00,WUHU216HW,2013-06-29 23:59:00,
2013-06-29 16:04:00,74.4,55.1,29.63,NW,315,2.6,2.6,51,0.00,,,0.00,WUHU216HW,2013-06-30 00:04:00,
2013-06-29 16:09:00,74.1,54.8,29.64,WNW,293,1.5,2.6,51,0.00,,,0.00,WUHU216HW,2013-06-30 00:09:00,
2013-06-29 16:14:00,73.9,55.1,29.64,NW,315,4.0,4.0,52,0.00,,,0.00,WUHU216HW,2013-06-30 00:14:00,
2013-06-29 16:19:00,73.9,55.1,29.63,WNW,293,5.8,5.8,52,0.00,,,0.00,WUHU216HW,2013-06-30 00:19:00,
2013-06-29 16:24:00,73.9,55.1,29.63,SSW,203,0.0,5.8,52,0.00,,,0.00,WUHU216HW,2013-06-30 00:24:00,
2013-06-29 16:29:00,73.7,54.9,29.63,NNW,338,0.0,1.3,52,0.00,,,0.00,WUHU216HW,2013-06-30 00:29:00,
2013-06-29 16:34:00,73.7,54.9,29.63,WSW,248,2.2,2.2,52,0.00,,,0.00,WUHU216HW,2013-06-30 00:34:00,
2013-06-29 16:39:00,73.7,55.4,29.63,West,270,0.0,2.2,53,0.00,,,0.00,WUHU216HW,2013-06-30 00:39:00,
2013-06-29 16:44:00,73.9,55.1,29.63,WNW,293,0.0,2.6,52,0.00,,,0.00,WUHU216HW,2013-06-30 00:44:00,
2013-06-29 16:49:00,73.9,55.6,29.63,NW,315,0.0,2.6,53,0.00,,,0.00,WUHU216HW,2013-06-30 00:49:00,
2013-06-29 16:54:00,74.1,55.3,29.63,North,0,1.1,1.1,52,0.00,,,0.00,WUHU216HW,2013-06-30 00:54:00,
2013-06-29 16:59:00,74.1,55.3,29.63,WNW,293,2.2,3.1,52,0.00,,,0.00,WUHU216HW,2013-06-30 00:59:00,
2013-06-29 17:04:00,74.1,55.3,29.63,WNW,293,0.0,6.2,52,0.00,,,0.00,WUHU216HW,2013-06-30 01:04:00,
2013-06-29 17:09:00,73.9,55.1,29.63,WNW,293,0.0,6.2,52,0.00,,,0.00,WUHU216HW,2013-06-30 01:09:00,
2013-06-29 17:14:00,73.7,55.4,29.62,West,270,0.0,4.0,53,0.00,,,0.00,WUHU216HW,2013-06-30 01:14:00,
2013-06-29 17:19:00,73.7,55.4,29.62,WNW,293,1.7,1.7,53,0.00,,,0.00,WUHU216HW,2013-06-30 01:19:00,
2013-06-29 17:24:00,73.5,55.2,29.62,NW,315,6.2,6.2,53,0.00,,,0.00,WUHU216HW,2013-06-30 01:24:00,
2013-06-29 17:29:00,73.2,55.4,29.62,WNW,293,3.3,6.2,54,0.00,,,0.00,WUHU216HW,2013-06-30 01:29:00,
2013-06-29 17:34:00,73.0,55.2,29.62,West,270,0.0,6.2,54,0.00,,,0.00,WUHU216HW,2013-06-30 01:34:00,
2013-06-29 17:39:00,72.5,55.1,29.62,West,270,2.6,3.3,55,0.00,,,0.00,WUHU216HW,2013-06-30 01:39:00,
2013-06-29 17:44:00,71.9,55.3,29.62,WNW,293,3.1,3.1,56,0.00,,,0.00,WUHU216HW,2013-06-30 01:44:00,
2013-06-29 17:49:00,71.6,55.0,29.62,West,270,0.0,3.1,56,0.00,,,0.00,WUHU216HW,2013-06-30 01:49:00,
2013-06-29 17:54:00,71.4,55.0,29.62,WNW,293,2.0,5.3,56,0.00,,,0.00,WUHU216HW,2013-06-30 01:54:00,
2013-06-29 17:59:00,71.4,54.8,29.62,WNW,293,0.8,5.3,56,0.00,,,0.00,WUHU216HW,2013-06-30 01:59:00,
2013-06-29 18:04:00,71.2,55.1,29.62,WSW,248,0.8,2.2,57,0.00,,,0.00,WUHU216HW,2013-06-30 02:04:00,
2013-06-29 18:09:00,71.0,55.0,29.62,NW,315,1.7,1.7,57,0.00,,,0.00,WUHU216HW,2013-06-30 02:09:00,
2013-06-29 18:14:00,70.8,54.8,29.62,WNW,293,0.0,1.7,57,0.00,,,0.00,WUHU216HW,2013-06-30 02:14:00,
2013-06-29 18:19:00,70.7,54.6,29.62,WNW,293,0.0,1.7,57,0.00,,,0.00,WUHU216HW,2013-06-30 02:19:00,
2013-06-29 18:24:00,70.7,55.2,29.62,West,270,1.5,1.5,58,0.00,,,0.00,WUHU216HW,2013-06-30 02:24:00,
2013-06-29 18:29:00,70.5,55.0,29.62,WNW,293,0.6,1.7,58,0.00,,,0.00,WUHU216HW,2013-06-30 02:29:00,
2013-06-29 18:34:00,70.5,55.0,29.62,WNW,293,4.9,4.9,58,0.00,,,0.00,WUHU216HW,2013-06-30 02:34:00,
2013-06-29 18:39:00,70.5,55.0,29.62,NW,315,1.7,4.9,58,0.00,,,0.00,WUHU216HW,2013-06-30 02:39:00,
2013-06-29 18:44:00,70.5,55.0,29.62,WNW,293,1.5,1.7,58,0.00,,,0.00,WUHU216HW,2013-06-30 02:44:00,
2013-06-29 18:49:00,70.5,55.0,29.62,NW,315,2.2,2.2,58,0.00,,,0.00,WUHU216HW,2013-06-30 02:49:00,
2013-06-29 18:54:00,70.7,55.2,29.62,NW,315,4.2,4.2,58,0.00,,,0.00,WUHU216HW,2013-06-30 02:54:00,
2013-06-29 18:59:00,70.8,55.3,29.61,WNW,293,0.8,4.2,58,0.00,,,0.00,WUHU216HW,2013-06-30 02:59:00,
2013-06-29 19:04:00,70.8,55.3,29.61,West,270,0.0,2.0,58,0.00,,,0.00,WUHU216HW,2013-06-30 03:04:00,
2013-06-29 19:09:00,70.7,55.2,29.61,West,270,1.5,2.6,58,0.00,,,0.00,WUHU216HW,2013-06-30 03:09:00,
2013-06-29 19:14:00,70.3,54.8,29.62,WNW,293,2.0,5.3,58,0.00,,,0.00,WUHU216HW,2013-06-30 03:14:00,
2013-06-29 19:19:00,70.3,54.8,29.62,WSW,248,0.0,5.3,58,0.00,,,0.00,WUHU216HW,2013-06-30 03:19:00,
2013-06-29 19:24:00,69.9,55.0,29.62,SSW,203,6.9,6.9,59,0.00,,,0.00,WUHU216HW,2013-06-30 03:24:00,
2013-06-29 19:29:00,69.9,55.0,29.62,WNW,293,0.0,6.9,59,0.00,,,0.00,WUHU216HW,2013-06-30 03:29:00,
2013-06-29 19:34:00,70.1,54.7,29.61,WNW,293,2.0,6.9,58,0.00,,,0.00,WUHU216HW,2013-06-30 03:34:00,
2013-06-29 19:39:00,70.3,55.5,29.61,WSW,248,1.5,2.4,59,0.00,,,0.00,WUHU216HW,2013-06-30 03:39:00,
2013-06-29 19:44:00,71.2,55.6,29.61,WNW,293,2.2,2.4,58,0.00,,,0.00,WUHU216HW,2013-06-30 03:44:00,
2013-06-29 19:49:00,71.2,55.1,29.62,WNW,293,0.8,2.2,57,0.00,,,0.00,WUHU216HW,2013-06-30 03:49:00,
2013-06-29 19:54:00,71.2,55.1,29.61,West,270,0.0,2.2,57,0.00,,,0.00,WUHU216HW,2013-06-30 03:54:00,
2013-06-29 19:59:00,70.7,54.6,29.61,WNW,293,0.0,2.2,57,0.00,,,0.00,WUHU216HW,2013-06-30 03:59:00,
2013-06-29 20:01:00,70.5,54.5,29.61,WSW,248,0.0,2.2,57,0.00,,,0.00,WUHU216HW,2013-06-30 04:01:00,
2013-06-29 20:02:00,70.5,54.5,29.61,WSW,248,0.0,2.2,57,0.00,,,0.00,WUHU216HW,2013-06-30 04:02:00,
2013-06-29 20:07:00,70.8,54.8,29.61,SW,225,0.0,2.9,57,0.00,,,0.00,WUHU216HW,2013-06-30 04:07:00,
2013-06-29 20:12:00,71.2,54.6,29.61,South,180,0.0,2.9,56,0.00,,,0.00,WUHU216HW,2013-06-30 04:12:00,
2013-06-29 20:17:00,71.0,54.5,29.61,West,270,0.0,3.1,56,0.00,,,0.00,WUHU216HW,2013-06-30 04:17:00,
2013-06-29 20:22:00,71.0,54.5,29.61,NW,315,5.1,5.1,56,0.00,,,0.00,WUHU216HW,2013-06-30 04:22:00,
2013-06-29 20:27:00,71.0,54.5,29.62,WNW,293,3.3,5.1,56,0.00,,,0.00,WUHU216HW,2013-06-30 04:27:00,
2013-06-29 20:32:00,70.7,54.1,29.61,WNW,293,0.4,5.1,56,0.00,,,0.00,WUHU216HW,2013-06-30 04:32:00,
2013-06-29 20:37:00,70.1,54.2,29.62,WNW,293,5.5,5.5,57,0.00,,,0.00,WUHU216HW,2013-06-30 04:37:00,
2013-06-29 20:42:00,69.4,53.5,29.62,West,270,2.2,5.5,57,0.00,,,0.00,WUHU216HW,2013-06-30 04:42:00,
2013-06-29 20:47:00,68.7,52.8,29.62,West,270,0.0,5.5,57,0.00,,,0.00,WUHU216HW,2013-06-30 04:47:00,
2013-06-29 20:52:00,67.8,52.4,29.62,NW,315,0.0,3.8,58,0.00,,,0.00,WUHU216HW,2013-06-30 04:52:00,
2013-06-29 20:57:00,67.2,51.9,29.62,WNW,293,0.0,3.8,58,0.00,,,0.00,WUHU216HW,2013-06-30 04:57:00,
2013-06-29 21:02:00,66.7,51.9,29.62,West,270,1.3,1.3,59,0.00,,,0.00,WUHU216HW,2013-06-30 05:02:00,
2013-06-29 21:07:00,66.3,51.6,29.62,WSW,248,0.0,3.5,59,0.00,,,0.00,WUHU216HW,2013-06-30 05:07:00,
2013-06-29 21:12:00,66.0,51.3,29.62,West,270,0.0,3.5,59,0.00,,,0.00,WUHU216HW,2013-06-30 05:12:00,
2013-06-29 21:17:00,65.8,51.1,29.62,WSW,248,5.5,5.5,59,0.00,,,0.00,WUHU216HW,2013-06-30 05:17:00,
2013-06-29 21:22:00,65.1,50.4,29.62,NNW,338,1.7,5.5,59,0.00,,,0.00,WUHU216HW,2013-06-30 05:22:00,
2013-06-29 21:27:00,64.7,50.5,29.63,West,270,0.6,1.7,60,0.00,,,0.00,WUHU216HW,2013-06-30 05:27:00,
2013-06-29 21:32:00,64.2,50.4,29.63,SW,225,0.0,1.7,61,0.00,,,0.00,WUHU216HW,2013-06-30 05:32:00,
2013-06-29 21:37:00,63.6,50.3,29.63,WNW,293,1.5,4.6,62,0.00,,,0.00,WUHU216HW,2013-06-30 05:37:00,
2013-06-29 21:42:00,63.1,49.8,29.63,SW,225,2.4,4.6,62,0.00,,,0.00,WUHU216HW,2013-06-30 05:42:00,
2013-06-29 21:47:00,62.4,49.6,29.62,NW,315,0.2,2.4,63,0.00,,,0.00,WUHU216HW,2013-06-30 05:47:00,
2013-06-29 21:52:00,61.8,49.5,29.63,WNW,293,6.2,6.2,64,0.00,,,0.00,WUHU216HW,2013-06-30 05:52:00,
2013-06-29 21:57:00,61.5,49.2,29.63,WNW,293,1.5,6.2,64,0.00,,,0.00,WUHU216HW,2013-06-30 05:57:00,
2013-06-29 22:02:00,61.3,49.4,29.63,West,270,0.2,6.2,65,0.00,,,0.00,WUHU216HW,2013-06-30 06:02:00,
2013-06-29 22:07:00,60.9,49.5,29.63,WSW,248,4.9,4.9,66,0.00,,,0.00,WUHU216HW,2013-06-30 06:07:00,